Prescott Valley, AZ

2:19 PM MST on August 22, 2014 (GMT -0700)
Prescott Valley-Central | Change Station
CLOSE
Current Station
Personal Weather Station
Location: Prescott Valley, AZ
Elevation: 5003 ft
Nearby Weather Stations

Elev 5003 ft 34.61 °N, 112.31 °W | Updated 3 minutes ago

Mostly Cloudy
Mostly Cloudy
69.9 °F
Feels Like 69.9 °F
N
2.2
Wind Variable Wind from South

Today
High -- | Low -- °F
--% Chance of Precip.
Yesterday
High -- | Low -- °F
Precip. -- in
5:55 AM 7:08 PM
Waning Crescent, 7% visible
Pressure 29.94 in
Visibility 10.0 miles
Clouds Scattered Clouds 5000 ft
Mostly Cloudy 8000 ft
Dew Point 51 °F
Humidity 51%
Rainfall 0.00 in
Snow Depth Not available.
UV 6 out of 12
Pollen 5.20 out of 12
Air Quality Not available.
Flu Activity Not available.
METAR KPRC 222053Z 22007G17KT 10SM SCT050 BKN080 22/10 A3015 RMK AO2 SLP137 T02220100 56008 $

More Conditions Fewer Conditions

Pressure 29.94 in
Visibility 10.0 miles
Clouds Scattered Clouds 5000 ft
Mostly Cloudy 8000 ft
Dew Point 51 °F
Humidity 51%
Rainfall 0.00 in
Snow Depth Not available.
UV 6 out of 12
Pollen 5.20 out of 12
Air Quality Not available.
Flu Activity Not available.
METAR KPRC 222053Z 22007G17KT 10SM SCT050 BKN080 22/10 A3015 RMK AO2 SLP137 T02220100 56008 $

More Conditions Fewer Conditions

10-Day Weather Forecast

Almanac

Astronomy

Aug. 22, 2014 Rise Set
Actual Time 5:55 AM MST 7:08 PM MST
Civil Twilight 5:28 AM MST 7:34 PM MST
Nautical Twilight 4:57 AM MST 8:05 PM MST
Astronomical Twilight 4:25 AM MST 8:38 PM MST
Moon 3:24 AM MST 5:17 PM MST
Length of Visible Light 14h 05m
Length of Day
13h 13m
Tomorrow will be 1m 59s shorter.
Waning Crescent, 7% of the Moon is Illuminated
Today
Waning Crescent
Aug 25
New
Sep 2
First Quarter
Sep 8
Full
Sep 15
Last Quarter

Today's Extremes

State Highs State Lows

Community

WunderPhotos

Upload Photos

1,746,256 photos uploaded!

Nearby

Snow Depth

Station Depth Elevation
Snowslide Canyon 1 in 9730 ft
Workman Creek 1 in 6900 ft
Beaver Head 11 in 7990 ft

Earthquake Activity

City Distance Mag. Time & Date
No recent earthquake activity has been reported nearby.
Minimum magnitude displayed is 2.5.

Coastal Water Temperatures

Place Temperature
No Stations Reporting

Nearby Weather Stations